sensor_id;sensor_type;location;lat;lon;timestamp;temperature;humidity
30694;DHT22;17446;48.022;-1.740;2022-08-23T00:01:06;21.10;99.90
30694;DHT22;17446;48.022;-1.740;2022-08-23T00:03:32;21.10;99.90
30694;DHT22;17446;48.022;-1.740;2022-08-23T00:05:57;21.10;99.90
30694;DHT22;17446;48.022;-1.740;2022-08-23T00:08:23;21.00;99.90
30694;DHT22;17446;48.022;-1.740;2022-08-23T00:10:48;21.00;99.90
30694;DHT22;17446;48.022;-1.740;2022-08-23T00:13:14;21.00;99.90
30694;DHT22;17446;48.022;-1.740;2022-08-23T00:15:39;21.00;99.90
30694;DHT22;17446;48.022;-1.740;2022-08-23T00:18:05;20.90;99.90
30694;DHT22;17446;48.022;-1.740;2022-08-23T00:20:31;20.90;99.90
30694;DHT22;17446;48.022;-1.740;2022-08-23T00:22:56;20.90;99.90
30694;DHT22;17446;48.022;-1.740;2022-08-23T00:25:22;20.90;99.90
30694;DHT22;17446;48.022;-1.740;2022-08-23T00:27:47;20.80;99.90
30694;DHT22;17446;48.022;-1.740;2022-08-23T00:30:14;20.80;99.90
30694;DHT22;17446;48.022;-1.740;2022-08-23T00:32:39;20.80;99.90
30694;DHT22;17446;48.022;-1.740;2022-08-23T00:35:05;20.80;99.90
30694;DHT22;17446;48.022;-1.740;2022-08-23T00:37:32;20.80;99.90
30694;DHT22;17446;48.022;-1.740;2022-08-23T00:39:58;20.80;99.90
30694;DHT22;17446;48.022;-1.740;2022-08-23T00:42:41;20.80;99.90
30694;DHT22;17446;48.022;-1.740;2022-08-23T00:45:36;20.80;99.90
30694;DHT22;17446;48.022;-1.740;2022-08-23T00:48:21;20.80;99.90
30694;DHT22;17446;48.022;-1.740;2022-08-23T00:50:54;20.80;99.90
30694;DHT22;17446;48.022;-1.740;2022-08-23T00:53:25;20.80;99.90
30694;DHT22;17446;48.022;-1.740;2022-08-23T00:55:54;20.80;99.90
30694;DHT22;17446;48.022;-1.740;2022-08-23T00:58:21;20.80;99.90
30694;DHT22;17446;48.022;-1.740;2022-08-23T01:00:48;20.70;99.90
30694;DHT22;17446;48.022;-1.740;2022-08-23T01:03:14;20.70;99.90
30694;DHT22;17446;48.022;-1.740;2022-08-23T01:05:44;20.70;99.90
30694;DHT22;17446;48.022;-1.740;2022-08-23T01:08:10;20.70;99.90
30694;DHT22;17446;48.022;-1.740;2022-08-23T01:10:38;20.70;99.90
30694;DHT22;17446;48.022;-1.740;2022-08-23T01:13:06;20.70;99.90
30694;DHT22;17446;48.022;-1.740;2022-08-23T01:15:34;20.70;99.90
30694;DHT22;17446;48.022;-1.740;2022-08-23T01:18:05;20.70;99.90
30694;DHT22;17446;48.022;-1.740;2022-08-23T01:20:33;20.70;99.90
30694;DHT22;17446;48.022;-1.740;2022-08-23T01:25:46;20.70;99.90
30694;DHT22;17446;48.022;-1.740;2022-08-23T01:28:11;20.70;99.90
30694;DHT22;17446;48.022;-1.740;2022-08-23T01:30:37;20.70;99.90
30694;DHT22;17446;48.022;-1.740;2022-08-23T01:33:06;20.70;99.90
30694;DHT22;17446;48.022;-1.740;2022-08-23T01:35:38;20.70;99.90
30694;DHT22;17446;48.022;-1.740;2022-08-23T01:38:05;20.70;99.90
30694;DHT22;17446;48.022;-1.740;2022-08-23T01:40:31;20.70;99.90
30694;DHT22;17446;48.022;-1.740;2022-08-23T01:42:57;20.70;99.90
30694;DHT22;17446;48.022;-1.740;2022-08-23T01:45:22;20.70;99.90
30694;DHT22;17446;48.022;-1.740;2022-08-23T01:47:48;20.70;99.90
30694;DHT22;17446;48.022;-1.740;2022-08-23T01:50:13;20.80;99.90
30694;DHT22;17446;48.022;-1.740;2022-08-23T01:52:39;20.80;99.90
30694;DHT22;17446;48.022;-1.740;2022-08-23T01:55:05;20.80;99.90
30694;DHT22;17446;48.022;-1.740;2022-08-23T01:57:31;20.80;99.90
30694;DHT22;17446;48.022;-1.740;2022-08-23T01:59:57;20.90;99.90
30694;DHT22;17446;48.022;-1.740;2022-08-23T02:02:23;20.90;99.90
30694;DHT22;17446;48.022;-1.740;2022-08-23T02:04:49;20.90;99.90
30694;DHT22;17446;48.022;-1.740;2022-08-23T02:07:14;20.90;99.90
30694;DHT22;17446;48.022;-1.740;2022-08-23T02:09:40;20.90;99.90
30694;DHT22;17446;48.022;-1.740;2022-08-23T02:12:05;20.90;99.90
30694;DHT22;17446;48.022;-1.740;2022-08-23T02:14:31;20.90;99.90
30694;DHT22;17446;48.022;-1.740;2022-08-23T02:16:57;20.90;99.90
30694;DHT22;17446;48.022;-1.740;2022-08-23T02:19:22;20.90;99.90
30694;DHT22;17446;48.022;-1.740;2022-08-23T02:21:48;20.90;99.90
30694;DHT22;17446;48.022;-1.740;2022-08-23T02:24:16;20.90;99.90
30694;DHT22;17446;48.022;-1.740;2022-08-23T02:26:43;20.90;99.90
30694;DHT22;17446;48.022;-1.740;2022-08-23T02:29:10;20.90;99.90
30694;DHT22;17446;48.022;-1.740;2022-08-23T02:31:35;20.90;99.90
30694;DHT22;17446;48.022;-1.740;2022-08-23T02:34:01;20.90;99.90
30694;DHT22;17446;48.022;-1.740;2022-08-23T02:36:27;20.90;99.90
30694;DHT22;17446;48.022;-1.740;2022-08-23T02:38:53;20.90;99.90
30694;DHT22;17446;48.022;-1.740;2022-08-23T02:41:19;21.00;99.90
30694;DHT22;17446;48.022;-1.740;2022-08-23T02:43:44;21.00;99.90
30694;DHT22;17446;48.022;-1.740;2022-08-23T02:46:10;21.00;99.90
30694;DHT22;17446;48.022;-1.740;2022-08-23T02:48:35;21.00;99.90
30694;DHT22;17446;48.022;-1.740;2022-08-23T02:51:03;21.00;99.90
30694;DHT22;17446;48.022;-1.740;2022-08-23T02:53:29;21.10;99.90
30694;DHT22;17446;48.022;-1.740;2022-08-23T02:55:54;21.10;99.90
30694;DHT22;17446;48.022;-1.740;2022-08-23T02:58:20;21.10;99.90
30694;DHT22;17446;48.022;-1.740;2022-08-23T03:00:46;21.10;99.90
30694;DHT22;17446;48.022;-1.740;2022-08-23T03:03:12;21.10;99.90
30694;DHT22;17446;48.022;-1.740;2022-08-23T03:05:37;21.10;99.90
30694;DHT22;17446;48.022;-1.740;2022-08-23T03:08:03;21.10;99.90
30694;DHT22;17446;48.022;-1.740;2022-08-23T03:10:28;21.10;99.90
30694;DHT22;17446;48.022;-1.740;2022-08-23T03:12:54;21.10;99.90
30694;DHT22;17446;48.022;-1.740;2022-08-23T03:15:19;21.20;99.90
30694;DHT22;17446;48.022;-1.740;2022-08-23T03:17:45;21.20;99.90
30694;DHT22;17446;48.022;-1.740;2022-08-23T03:20:10;21.20;99.90
30694;DHT22;17446;48.022;-1.740;2022-08-23T03:22:36;21.20;99.90
30694;DHT22;17446;48.022;-1.740;2022-08-23T03:25:02;21.20;99.90
30694;DHT22;17446;48.022;-1.740;2022-08-23T03:27:28;21.20;99.90
30694;DHT22;17446;48.022;-1.740;2022-08-23T03:29:55;21.20;99.90
30694;DHT22;17446;48.022;-1.740;2022-08-23T03:32:21;21.20;99.90
30694;DHT22;17446;48.022;-1.740;2022-08-23T03:34:47;21.20;99.90
30694;DHT22;17446;48.022;-1.740;2022-08-23T03:37:12;21.20;99.90
30694;DHT22;17446;48.022;-1.740;2022-08-23T03:39:38;21.20;99.90
30694;DHT22;17446;48.022;-1.740;2022-08-23T03:42:04;21.30;99.90
30694;DHT22;17446;48.022;-1.740;2022-08-23T03:44:29;21.30;99.90
30694;DHT22;17446;48.022;-1.740;2022-08-23T03:46:55;21.20;99.90
30694;DHT22;17446;48.022;-1.740;2022-08-23T03:49:20;21.20;99.90
30694;DHT22;17446;48.022;-1.740;2022-08-23T03:51:46;21.30;99.90
30694;DHT22;17446;48.022;-1.740;2022-08-23T03:54:11;21.30;99.90
30694;DHT22;17446;48.022;-1.740;2022-08-23T03:56:38;21.30;99.90
30694;DHT22;17446;48.022;-1.740;2022-08-23T03:59:06;21.30;99.90
30694;DHT22;17446;48.022;-1.740;2022-08-23T04:01:31;21.30;99.90
30694;DHT22;17446;48.022;-1.740;2022-08-23T04:03:57;21.30;99.90
30694;DHT22;17446;48.022;-1.740;2022-08-23T04:06:26;21.30;99.90
30694;DHT22;17446;48.022;-1.740;2022-08-23T04:08:52;21.30;99.90
30694;DHT22;17446;48.022;-1.740;2022-08-23T04:11:19;21.30;99.90
30694;DHT22;17446;48.022;-1.740;2022-08-23T04:13:44;21.20;99.90
30694;DHT22;17446;48.022;-1.740;2022-08-23T04:16:10;21.30;99.90
30694;DHT22;17446;48.022;-1.740;2022-08-23T04:18:36;21.30;99.90
30694;DHT22;17446;48.022;-1.740;2022-08-23T04:21:04;21.20;99.90
30694;DHT22;17446;48.022;-1.740;2022-08-23T04:23:30;21.30;99.90
30694;DHT22;17446;48.022;-1.740;2022-08-23T04:25:56;21.30;99.90
30694;DHT22;17446;48.022;-1.740;2022-08-23T04:28:21;21.20;99.90
30694;DHT22;17446;48.022;-1.740;2022-08-23T04:30:47;21.20;99.90
30694;DHT22;17446;48.022;-1.740;2022-08-23T04:33:14;21.20;99.90
30694;DHT22;17446;48.022;-1.740;2022-08-23T04:35:40;21.20;99.90
30694;DHT22;17446;48.022;-1.740;2022-08-23T04:38:05;21.20;99.90
30694;DHT22;17446;48.022;-1.740;2022-08-23T04:40:31;21.20;99.90
30694;DHT22;17446;48.022;-1.740;2022-08-23T04:43:15;21.20;99.90
30694;DHT22;17446;48.022;-1.740;2022-08-23T04:45:41;21.20;99.90
30694;DHT22;17446;48.022;-1.740;2022-08-23T04:48:06;21.20;99.90
30694;DHT22;17446;48.022;-1.740;2022-08-23T04:50:34;21.20;99.90
30694;DHT22;17446;48.022;-1.740;2022-08-23T04:53:00;21.20;99.90
30694;DHT22;17446;48.022;-1.740;2022-08-23T04:55:26;21.30;99.90
30694;DHT22;17446;48.022;-1.740;2022-08-23T04:57:51;21.30;99.90
30694;DHT22;17446;48.022;-1.740;2022-08-23T05:00:17;21.30;99.90
30694;DHT22;17446;48.022;-1.740;2022-08-23T05:02:42;21.30;99.90
30694;DHT22;17446;48.022;-1.740;2022-08-23T05:05:09;21.30;99.90
30694;DHT22;17446;48.022;-1.740;2022-08-23T05:07:36;21.30;99.90
30694;DHT22;17446;48.022;-1.740;2022-08-23T05:10:03;21.30;99.90
30694;DHT22;17446;48.022;-1.740;2022-08-23T05:12:28;21.30;99.90
30694;DHT22;17446;48.022;-1.740;2022-08-23T05:14:54;21.30;99.90
30694;DHT22;17446;48.022;-1.740;2022-08-23T05:17:19;21.30;99.90
30694;DHT22;17446;48.022;-1.740;2022-08-23T05:19:45;21.30;99.90
30694;DHT22;17446;48.022;-1.740;2022-08-23T05:22:10;21.30;99.90
30694;DHT22;17446;48.022;-1.740;2022-08-23T05:24:36;21.30;99.90
30694;DHT22;17446;48.022;-1.740;2022-08-23T05:27:02;21.30;99.90
30694;DHT22;17446;48.022;-1.740;2022-08-23T05:29:27;21.40;99.90
30694;DHT22;17446;48.022;-1.740;2022-08-23T05:31:53;21.30;99.90
30694;DHT22;17446;48.022;-1.740;2022-08-23T05:34:18;21.40;99.90
30694;DHT22;17446;48.022;-1.740;2022-08-23T05:36:44;21.40;99.90
30694;DHT22;17446;48.022;-1.740;2022-08-23T05:39:10;21.40;99.90
30694;DHT22;17446;48.022;-1.740;2022-08-23T05:41:35;21.40;99.90
30694;DHT22;17446;48.022;-1.740;2022-08-23T05:44:01;21.40;99.90
30694;DHT22;17446;48.022;-1.740;2022-08-23T05:46:27;21.40;99.90
30694;DHT22;17446;48.022;-1.740;2022-08-23T05:48:53;21.40;99.90
30694;DHT22;17446;48.022;-1.740;2022-08-23T05:53:44;21.40;99.90
30694;DHT22;17446;48.022;-1.740;2022-08-23T05:56:11;21.40;99.90
30694;DHT22;17446;48.022;-1.740;2022-08-23T05:58:37;21.50;99.90
30694;DHT22;17446;48.022;-1.740;2022-08-23T06:01:02;21.50;99.90
30694;DHT22;17446;48.022;-1.740;2022-08-23T06:03:28;21.50;99.90
30694;DHT22;17446;48.022;-1.740;2022-08-23T06:05:57;21.50;99.90
30694;DHT22;17446;48.022;-1.740;2022-08-23T06:08:22;21.50;99.90
30694;DHT22;17446;48.022;-1.740;2022-08-23T06:10:48;21.60;99.90
30694;DHT22;17446;48.022;-1.740;2022-08-23T06:13:13;21.60;99.90
30694;DHT22;17446;48.022;-1.740;2022-08-23T06:15:42;21.60;99.90
30694;DHT22;17446;48.022;-1.740;2022-08-23T06:18:08;21.60;99.90
30694;DHT22;17446;48.022;-1.740;2022-08-23T06:20:33;21.60;99.90
30694;DHT22;17446;48.022;-1.740;2022-08-23T06:22:59;21.60;99.90
30694;DHT22;17446;48.022;-1.740;2022-08-23T06:25:24;21.70;99.90
30694;DHT22;17446;48.022;-1.740;2022-08-23T06:27:50;21.70;99.90
30694;DHT22;17446;48.022;-1.740;2022-08-23T06:30:16;21.70;99.90
30694;DHT22;17446;48.022;-1.740;2022-08-23T06:32:42;21.70;99.90
30694;DHT22;17446;48.022;-1.740;2022-08-23T06:35:07;21.70;99.90
30694;DHT22;17446;48.022;-1.740;2022-08-23T06:37:33;21.70;99.90
30694;DHT22;17446;48.022;-1.740;2022-08-23T06:39:59;21.70;99.90
30694;DHT22;17446;48.022;-1.740;2022-08-23T06:42:24;21.70;99.90
30694;DHT22;17446;48.022;-1.740;2022-08-23T06:44:50;21.70;99.90
30694;DHT22;17446;48.022;-1.740;2022-08-23T06:47:16;21.70;99.90
30694;DHT22;17446;48.022;-1.740;2022-08-23T06:49:41;21.80;99.90
30694;DHT22;17446;48.022;-1.740;2022-08-23T06:52:07;21.80;99.90
30694;DHT22;17446;48.022;-1.740;2022-08-23T06:54:34;21.80;99.90
30694;DHT22;17446;48.022;-1.740;2022-08-23T06:56:59;21.80;99.90
30694;DHT22;17446;48.022;-1.740;2022-08-23T06:59:25;21.80;99.90
30694;DHT22;17446;48.022;-1.740;2022-08-23T07:01:55;21.90;99.90
30694;DHT22;17446;48.022;-1.740;2022-08-23T07:04:23;21.90;99.90
30694;DHT22;17446;48.022;-1.740;2022-08-23T07:06:48;22.00;99.90
30694;DHT22;17446;48.022;-1.740;2022-08-23T07:09:14;22.20;99.90
30694;DHT22;17446;48.022;-1.740;2022-08-23T07:11:40;22.30;99.90
30694;DHT22;17446;48.022;-1.740;2022-08-23T07:14:07;22.40;99.90
30694;DHT22;17446;48.022;-1.740;2022-08-23T07:16:35;22.50;99.90
30694;DHT22;17446;48.022;-1.740;2022-08-23T07:19:02;22.50;99.90
30694;DHT22;17446;48.022;-1.740;2022-08-23T07:21:27;22.60;99.90
30694;DHT22;17446;48.022;-1.740;2022-08-23T07:23:53;22.60;99.90
30694;DHT22;17446;48.022;-1.740;2022-08-23T07:26:20;22.60;99.90
30694;DHT22;17446;48.022;-1.740;2022-08-23T07:28:45;22.70;99.90
30694;DHT22;17446;48.022;-1.740;2022-08-23T07:33:37;22.80;99.90
30694;DHT22;17446;48.022;-1.740;2022-08-23T07:36:03;23.00;99.90
30694;DHT22;17446;48.022;-1.740;2022-08-23T07:38:29;23.00;99.90
30694;DHT22;17446;48.022;-1.740;2022-08-23T07:40:54;23.10;99.90
30694;DHT22;17446;48.022;-1.740;2022-08-23T07:43:20;23.20;99.90
30694;DHT22;17446;48.022;-1.740;2022-08-23T07:45:47;23.30;99.90
30694;DHT22;17446;48.022;-1.740;2022-08-23T07:48:12;23.30;99.90
30694;DHT22;17446;48.022;-1.740;2022-08-23T07:50:38;23.40;99.90
30694;DHT22;17446;48.022;-1.740;2022-08-23T07:53:05;23.50;99.90
30694;DHT22;17446;48.022;-1.740;2022-08-23T07:55:31;23.60;99.90
30694;DHT22;17446;48.022;-1.740;2022-08-23T07:57:56;23.60;99.90
30694;DHT22;17446;48.022;-1.740;2022-08-23T08:00:22;23.70;99.90
30694;DHT22;17446;48.022;-1.740;2022-08-23T08:02:48;23.80;99.90
30694;DHT22;17446;48.022;-1.740;2022-08-23T08:05:13;23.90;99.90
30694;DHT22;17446;48.022;-1.740;2022-08-23T08:07:39;23.90;99.90
30694;DHT22;17446;48.022;-1.740;2022-08-23T08:10:04;24.00;99.90
30694;DHT22;17446;48.022;-1.740;2022-08-23T08:12:30;24.00;99.90
30694;DHT22;17446;48.022;-1.740;2022-08-23T08:14:57;24.10;99.90
30694;DHT22;17446;48.022;-1.740;2022-08-23T08:17:23;24.10;99.90
30694;DHT22;17446;48.022;-1.740;2022-08-23T08:19:48;24.00;99.90
30694;DHT22;17446;48.022;-1.740;2022-08-23T08:22:14;24.00;99.90
30694;DHT22;17446;48.022;-1.740;2022-08-23T08:24:39;24.00;99.90
30694;DHT22;17446;48.022;-1.740;2022-08-23T08:27:05;23.90;99.90
30694;DHT22;17446;48.022;-1.740;2022-08-23T08:29:30;23.90;99.90
30694;DHT22;17446;48.022;-1.740;2022-08-23T08:31:56;23.90;99.90
30694;DHT22;17446;48.022;-1.740;2022-08-23T08:34:22;23.90;99.90
30694;DHT22;17446;48.022;-1.740;2022-08-23T08:36:49;24.00;99.90
30694;DHT22;17446;48.022;-1.740;2022-08-23T08:39:17;24.00;99.90
30694;DHT22;17446;48.022;-1.740;2022-08-23T08:47:19;24.30;99.90
30694;DHT22;17446;48.022;-1.740;2022-08-23T08:52:25;24.60;99.90
30694;DHT22;17446;48.022;-1.740;2022-08-23T08:54:55;24.80;99.90
30694;DHT22;17446;48.022;-1.740;2022-08-23T08:57:21;25.00;99.90
30694;DHT22;17446;48.022;-1.740;2022-08-23T09:02:16;25.30;99.90
30694;DHT22;17446;48.022;-1.740;2022-08-23T09:04:43;25.50;99.90
30694;DHT22;17446;48.022;-1.740;2022-08-23T09:20:16;25.30;99.90
30694;DHT22;17446;48.022;-1.740;2022-08-23T09:22:47;25.30;99.90
30694;DHT22;17446;48.022;-1.740;2022-08-23T09:25:15;25.30;99.90
30694;DHT22;17446;48.022;-1.740;2022-08-23T09:27:42;25.30;99.90
30694;DHT22;17446;48.022;-1.740;2022-08-23T09:30:09;25.20;99.90
30694;DHT22;17446;48.022;-1.740;2022-08-23T09:32:38;25.30;99.90
30694;DHT22;17446;48.022;-1.740;2022-08-23T09:35:23;25.50;99.90
30694;DHT22;17446;48.022;-1.740;2022-08-23T09:37:51;25.60;99.90
30694;DHT22;17446;48.022;-1.740;2022-08-23T09:41:02;25.80;99.90
30694;DHT22;17446;48.022;-1.740;2022-08-23T09:43:22;26.00;99.90
30694;DHT22;17446;48.022;-1.740;2022-08-23T09:53:31;25.80;99.90
30694;DHT22;17446;48.022;-1.740;2022-08-23T09:55:57;25.60;99.90
30694;DHT22;17446;48.022;-1.740;2022-08-23T09:58:30;25.60;99.90
30694;DHT22;17446;48.022;-1.740;2022-08-23T10:03:41;25.50;99.90
30694;DHT22;17446;48.022;-1.740;2022-08-23T10:06:06;25.60;99.90
30694;DHT22;17446;48.022;-1.740;2022-08-23T10:08:35;25.70;99.90
30694;DHT22;17446;48.022;-1.740;2022-08-23T10:11:04;25.90;99.90
30694;DHT22;17446;48.022;-1.740;2022-08-23T10:13:30;26.00;99.90
30694;DHT22;17446;48.022;-1.740;2022-08-23T10:18:25;26.30;99.30
30694;DHT22;17446;48.022;-1.740;2022-08-23T10:20:56;26.50;98.90
30694;DHT22;17446;48.022;-1.740;2022-08-23T10:23:32;26.60;98.80
30694;DHT22;17446;48.022;-1.740;2022-08-23T10:26:02;26.80;98.80
30694;DHT22;17446;48.022;-1.740;2022-08-23T10:31:32;27.10;98.30
30694;DHT22;17446;48.022;-1.740;2022-08-23T10:38:57;27.40;98.00
30694;DHT22;17446;48.022;-1.740;2022-08-23T10:46:21;27.60;97.10
30694;DHT22;17446;48.022;-1.740;2022-08-23T10:48:49;27.60;96.90
30694;DHT22;17446;48.022;-1.740;2022-08-23T10:51:18;27.70;96.90
30694;DHT22;17446;48.022;-1.740;2022-08-23T10:53:52;27.80;96.70
30694;DHT22;17446;48.022;-1.740;2022-08-23T10:56:21;27.80;96.30
30694;DHT22;17446;48.022;-1.740;2022-08-23T10:58:58;27.80;96.00
30694;DHT22;17446;48.022;-1.740;2022-08-23T11:01:36;27.90;96.30
30694;DHT22;17446;48.022;-1.740;2022-08-23T11:04:05;27.90;96.10
30694;DHT22;17446;48.022;-1.740;2022-08-23T11:11:32;28.20;95.30
30694;DHT22;17446;48.022;-1.740;2022-08-23T11:14:01;28.30;95.20
30694;DHT22;17446;48.022;-1.740;2022-08-23T11:16:30;28.40;94.90
30694;DHT22;17446;48.022;-1.740;2022-08-23T11:18:56;28.60;95.20
30694;DHT22;17446;48.022;-1.740;2022-08-23T11:31:33;28.60;93.60
30694;DHT22;17446;48.022;-1.740;2022-08-23T11:34:03;28.50;93.60
30694;DHT22;17446;48.022;-1.740;2022-08-23T11:36:31;28.50;93.80
30694;DHT22;17446;48.022;-1.740;2022-08-23T11:41:26;28.40;93.80
30694;DHT22;17446;48.022;-1.740;2022-08-23T11:49:02;28.10;93.50
30694;DHT22;17446;48.022;-1.740;2022-08-23T12:04:57;27.70;94.90
30694;DHT22;17446;48.022;-1.740;2022-08-23T12:07:42;27.70;94.60
30694;DHT22;17446;48.022;-1.740;2022-08-23T12:10:08;27.70;94.80
30694;DHT22;17446;48.022;-1.740;2022-08-23T12:12:34;27.70;95.10
30694;DHT22;17446;48.022;-1.740;2022-08-23T12:15:01;27.60;94.90
30694;DHT22;17446;48.022;-1.740;2022-08-23T12:22:23;27.30;95.10
30694;DHT22;17446;48.022;-1.740;2022-08-23T12:24:59;27.20;95.10
30694;DHT22;17446;48.022;-1.740;2022-08-23T12:27:28;27.10;95.20
30694;DHT22;17446;48.022;-1.740;2022-08-23T12:34:59;27.20;95.60
30694;DHT22;17446;48.022;-1.740;2022-08-23T12:37:33;27.30;95.30
30694;DHT22;17446;48.022;-1.740;2022-08-23T12:40:02;27.40;95.80
30694;DHT22;17446;48.022;-1.740;2022-08-23T12:42:30;27.50;95.50
30694;DHT22;17446;48.022;-1.740;2022-08-23T12:47:27;27.80;95.20
30694;DHT22;17446;48.022;-1.740;2022-08-23T12:49:55;28.00;95.30
30694;DHT22;17446;48.022;-1.740;2022-08-23T12:52:23;28.30;95.40
30694;DHT22;17446;48.022;-1.740;2022-08-23T12:54:49;28.50;94.90
30694;DHT22;17446;48.022;-1.740;2022-08-23T12:57:18;28.60;94.50
30694;DHT22;17446;48.022;-1.740;2022-08-23T13:02:19;28.80;94.30
30694;DHT22;17446;48.022;-1.740;2022-08-23T13:04:47;28.70;94.10
30694;DHT22;17446;48.022;-1.740;2022-08-23T13:07:14;28.70;94.20
30694;DHT22;17446;48.022;-1.740;2022-08-23T13:09:41;28.60;94.20
30694;DHT22;17446;48.022;-1.740;2022-08-23T13:12:08;28.50;94.40
30694;DHT22;17446;48.022;-1.740;2022-08-23T13:19:45;28.30;94.60
30694;DHT22;17446;48.022;-1.740;2022-08-23T13:24:43;28.00;94.70
30694;DHT22;17446;48.022;-1.740;2022-08-23T13:27:10;27.90;94.60
30694;DHT22;17446;48.022;-1.740;2022-08-23T13:32:25;27.50;94.90
30694;DHT22;17446;48.022;-1.740;2022-08-23T13:34:50;27.30;95.40
30694;DHT22;17446;48.022;-1.740;2022-08-23T13:37:29;27.20;95.60
30694;DHT22;17446;48.022;-1.740;2022-08-23T13:39:56;27.20;95.90
30694;DHT22;17446;48.022;-1.740;2022-08-23T13:44:51;27.10;96.00
30694;DHT22;17446;48.022;-1.740;2022-08-23T13:47:21;27.20;96.00
30694;DHT22;17446;48.022;-1.740;2022-08-23T13:49:48;27.20;96.20
30694;DHT22;17446;48.022;-1.740;2022-08-23T13:52:14;27.30;96.00
30694;DHT22;17446;48.022;-1.740;2022-08-23T13:54:39;27.40;95.80
30694;DHT22;17446;48.022;-1.740;2022-08-23T13:57:06;27.50;95.90
30694;DHT22;17446;48.022;-1.740;2022-08-23T13:59:36;27.50;95.30
30694;DHT22;17446;48.022;-1.740;2022-08-23T14:02:04;27.50;95.70
30694;DHT22;17446;48.022;-1.740;2022-08-23T14:04:30;27.50;95.50
30694;DHT22;17446;48.022;-1.740;2022-08-23T14:06:56;27.40;95.60
30694;DHT22;17446;48.022;-1.740;2022-08-23T14:09:21;27.50;95.80
30694;DHT22;17446;48.022;-1.740;2022-08-23T14:11:48;27.60;95.50
30694;DHT22;17446;48.022;-1.740;2022-08-23T14:14:15;27.50;95.30
30694;DHT22;17446;48.022;-1.740;2022-08-23T14:16:41;27.40;95.20
30694;DHT22;17446;48.022;-1.740;2022-08-23T14:19:07;27.40;95.40
30694;DHT22;17446;48.022;-1.740;2022-08-23T14:21:33;27.30;95.20
30694;DHT22;17446;48.022;-1.740;2022-08-23T14:23:58;27.20;95.20
30694;DHT22;17446;48.022;-1.740;2022-08-23T14:26:24;27.20;95.30
30694;DHT22;17446;48.022;-1.740;2022-08-23T14:28:51;27.30;95.20
30694;DHT22;17446;48.022;-1.740;2022-08-23T14:31:17;27.40;95.40
30694;DHT22;17446;48.022;-1.740;2022-08-23T14:33:44;27.50;95.60
30694;DHT22;17446;48.022;-1.740;2022-08-23T14:36:09;27.80;95.50
30694;DHT22;17446;48.022;-1.740;2022-08-23T14:38:36;27.80;95.20
30694;DHT22;17446;48.022;-1.740;2022-08-23T14:41:04;27.90;94.80
30694;DHT22;17446;48.022;-1.740;2022-08-23T14:43:30;27.80;94.60
30694;DHT22;17446;48.022;-1.740;2022-08-23T14:45:56;27.80;94.50
30694;DHT22;17446;48.022;-1.740;2022-08-23T14:48:22;27.70;94.70
30694;DHT22;17446;48.022;-1.740;2022-08-23T14:50:47;27.60;95.00
30694;DHT22;17446;48.022;-1.740;2022-08-23T14:53:14;27.50;94.80
30694;DHT22;17446;48.022;-1.740;2022-08-23T14:55:40;27.40;95.10
30694;DHT22;17446;48.022;-1.740;2022-08-23T14:58:06;27.40;95.30
30694;DHT22;17446;48.022;-1.740;2022-08-23T15:00:32;27.40;95.60
30694;DHT22;17446;48.022;-1.740;2022-08-23T15:03:00;27.50;95.70
30694;DHT22;17446;48.022;-1.740;2022-08-23T15:05:26;27.60;95.60
30694;DHT22;17446;48.022;-1.740;2022-08-23T15:07:51;27.70;95.20
30694;DHT22;17446;48.022;-1.740;2022-08-23T15:10:17;27.70;95.10
30694;DHT22;17446;48.022;-1.740;2022-08-23T15:12:42;27.70;95.40
30694;DHT22;17446;48.022;-1.740;2022-08-23T15:15:10;27.70;95.50
30694;DHT22;17446;48.022;-1.740;2022-08-23T15:17:58;27.60;95.30
30694;DHT22;17446;48.022;-1.740;2022-08-23T15:20:22;27.60;95.50
30694;DHT22;17446;48.022;-1.740;2022-08-23T15:22:48;27.60;95.70
30694;DHT22;17446;48.022;-1.740;2022-08-23T15:25:14;27.60;95.80
30694;DHT22;17446;48.022;-1.740;2022-08-23T15:27:40;27.50;95.70
30694;DHT22;17446;48.022;-1.740;2022-08-23T15:30:06;27.40;95.60
30694;DHT22;17446;48.022;-1.740;2022-08-23T15:32:32;27.30;95.80
30694;DHT22;17446;48.022;-1.740;2022-08-23T15:34:57;27.20;96.10
30694;DHT22;17446;48.022;-1.740;2022-08-23T15:37:23;27.10;96.20
30694;DHT22;17446;48.022;-1.740;2022-08-23T15:39:48;27.10;96.20
30694;DHT22;17446;48.022;-1.740;2022-08-23T15:42:14;27.00;96.30
30694;DHT22;17446;48.022;-1.740;2022-08-23T15:44:40;26.90;96.40
30694;DHT22;17446;48.022;-1.740;2022-08-23T15:47:08;26.90;96.70
30694;DHT22;17446;48.022;-1.740;2022-08-23T15:49:38;26.80;96.90
30694;DHT22;17446;48.022;-1.740;2022-08-23T15:52:03;26.90;97.20
30694;DHT22;17446;48.022;-1.740;2022-08-23T15:54:29;27.00;97.10
30694;DHT22;17446;48.022;-1.740;2022-08-23T15:56:54;27.10;97.00
30694;DHT22;17446;48.022;-1.740;2022-08-23T15:59:20;27.30;97.00
30694;DHT22;17446;48.022;-1.740;2022-08-23T16:01:48;27.50;96.90
30694;DHT22;17446;48.022;-1.740;2022-08-23T16:04:13;27.70;96.70
30694;DHT22;17446;48.022;-1.740;2022-08-23T16:06:39;27.90;96.00
30694;DHT22;17446;48.022;-1.740;2022-08-23T16:09:06;28.00;96.00
30694;DHT22;17446;48.022;-1.740;2022-08-23T16:11:33;28.10;95.60
30694;DHT22;17446;48.022;-1.740;2022-08-23T16:13:58;28.10;95.50
30694;DHT22;17446;48.022;-1.740;2022-08-23T16:16:28;28.00;95.30
30694;DHT22;17446;48.022;-1.740;2022-08-23T16:18:55;28.00;94.90
30694;DHT22;17446;48.022;-1.740;2022-08-23T16:21:23;27.90;94.80
30694;DHT22;17446;48.022;-1.740;2022-08-23T16:23:49;27.80;94.90
30694;DHT22;17446;48.022;-1.740;2022-08-23T16:26:16;27.70;94.80
30694;DHT22;17446;48.022;-1.740;2022-08-23T16:28:46;27.70;95.20
30694;DHT22;17446;48.022;-1.740;2022-08-23T16:31:12;27.80;95.30
30694;DHT22;17446;48.022;-1.740;2022-08-23T16:33:38;28.10;95.30
30694;DHT22;17446;48.022;-1.740;2022-08-23T16:36:04;28.40;94.60
30694;DHT22;17446;48.022;-1.740;2022-08-23T16:38:30;29.00;94.10
30694;DHT22;17446;48.022;-1.740;2022-08-23T16:40:55;29.50;93.10
30694;DHT22;17446;48.022;-1.740;2022-08-23T16:43:21;29.70;91.90
30694;DHT22;17446;48.022;-1.740;2022-08-23T16:45:46;29.70;92.00
30694;DHT22;17446;48.022;-1.740;2022-08-23T16:48:12;29.50;91.60
30694;DHT22;17446;48.022;-1.740;2022-08-23T16:50:38;29.40;91.90
30694;DHT22;17446;48.022;-1.740;2022-08-23T16:53:03;29.30;91.90
30694;DHT22;17446;48.022;-1.740;2022-08-23T16:55:29;29.10;91.70
30694;DHT22;17446;48.022;-1.740;2022-08-23T16:57:55;29.00;91.90
30694;DHT22;17446;48.022;-1.740;2022-08-23T17:00:21;28.90;92.10
30694;DHT22;17446;48.022;-1.740;2022-08-23T17:02:46;28.90;92.20
30694;DHT22;17446;48.022;-1.740;2022-08-23T17:05:13;28.80;92.10
30694;DHT22;17446;48.022;-1.740;2022-08-23T17:07:39;28.70;92.60
30694;DHT22;17446;48.022;-1.740;2022-08-23T17:10:06;28.50;92.80
30694;DHT22;17446;48.022;-1.740;2022-08-23T17:12:33;28.40;92.90
30694;DHT22;17446;48.022;-1.740;2022-08-23T17:14:59;28.30;92.80